Tiempo atmosférico en la estación meteorológica de Zafra, Badajoz (433 m.)



Fecha
DESCASC
Temp. máxima en grados centígrados (hora)
DESCASC
Temp. mínima en grados centígrados (hora)
DESCASC
Temp. media en grados centígrados
DESCASC
Racha de viento máxima en m/sg (hora)
DESCASC
Velocidad máxima media en intervalos de 10 minutos(hora)
DESCASC
Precipitaciones diarias en mm
DESCASC
Precipitaciones de 00:00 a 06:00 en mm
DESCASC
Precipitaciones de 06:00 a 12:00 en mm
DESCASC
Precipitaciones de 12:00 a 18:00 en mm
DESCASC
Precipitaciones de 18:00 a 24:00 en mm
DESCASC
14-02-2019 20.1 (16:40) 1.9 (07:00) 11 9.17 (10:50) 6.39 (11:00) 0 0 0 0 0
13-02-2019 18.6 (16:20) 3 (08:20) 10.8 6.94 (15:40) 4.44 (15:40) 0 0 0 0 0
12-02-2019 18.6 (17:10) 2.3 (07:00) 10.5 5.83 (14:30) 3.61 (17:40) 0 0 0 0 0
11-02-2019 14.4 (15:20) 3.2 (23:59) 8.8 6.67 (14:30) 4.17 (15:00) 0 0 0 0 0
10-02-2019 15.2 (16:00) 2.5 (00:00) 8.8 8.89 (11:10) 4.44 (11:10) 0 0 0 0 0
09-02-2019 16.3 (15:30) 0.7 (00:00) 8.5 5.83 (13:10) 3.33 (13:10) 0 0 0 0 0
08-02-2019 14.5 (12:20) 0.6 (00:00) 7.6 5.56 (12:40) 4.17 (12:50) 0 0 0 0 0
07-02-2019 16.1 (13:00) 1.6 (00:00) 8.9 5.56 (15:20) 4.17 (15:20) 0 0 0 0 0
06-02-2019 19.6 (15:30) 1.8 (00:00) 10.7 6.11 (17:20) 3.61 (17:10) 0 0 0 0 0
05-02-2019 18 (15:40) -0.3 (00:00) 8.8 3.89 (16:20) 2.78 (16:20) 0 0 0 0 0
04-02-2019 14.5 (14:30) -2.6 (-00:0) 6 4.17 (03:00) 2.78 (03:00) 0 0 0 0 0
03-02-2019 10 (17:00) -2.3 (-00:0) 3.9 7.5 (12:00) 5 (11:40) 0 0 0 0 0
02-02-2019 9.7 (16:40) -0.2 (00:00) 4.7 15 (06:50) 10.83 (14:30) 0.4 0.4 0 0 0
01-02-2019 12.4 (02:10) 4.9 (00:00) 8.6 17.22 (14:30) 9.44 (18:30) 19 15.2 0.2 2.4 1.2
31-01-2019 13.3 (15:20) 10.6 (00:00) 12 17.5 (17:00) 6.67 (17:20) 10.8 2.2 2.6 2.6 3.4
30-01-2019 12.5 (13:20) 7.6 (00:00) 10 11.11 (22:20) 7.5 (01:50) 1.4 0 0 0 1.4
29-01-2019 12.4 (15:10) 7.1 (00:00) 9.7 12.5 (18:10) 7.5 (16:40) 0 0 0 0 0
28-01-2019 12.3 (13:40) 0.9 (00:00) 6.6 11.11 (16:50) 8.06 (16:50) 0 0 0 0 0
27-01-2019 12.1 (16:10) 1.2 (00:00) 6.7 13.33 (16:20) 8.33 (16:30) 0 0 0 0 0
26-01-2019 19.7 (15:50) 1.9 (00:00) 10.8 5.28 (18:30) 3.33 (09:30) 0 0 0 0 0
25-01-2019 19.4 (17:00) 2.5 (00:00) 10.9 4.17 (09:20) 3.33 (12:30) 0 0 0 0 0
24-01-2019 17 (17:10) 5.6 (00:00) 11.3 11.67 (01:10) 8.06 (12:10) 0 0 0 0 0
23-01-2019 13.4 (16:40) 7 (00:00) 10.2 15.83 (17:20) 10.28 (17:20) 0 0 0 0 0
22-01-2019 10.6 (15:00) -0.4 (00:00) 5.1 13.89 (14:20) 7.5 (13:50) 0 0 0 0 0
21-01-2019 11.2 (16:20) -1 (-00:0) 5.1 5.28 (16:20) 3.33 (13:20) 0 0 0 0 0
20-01-2019 12 (16:00) 1.3 (00:00) 6.6 12.78 (07:40) 8.89 (11:20) 0.4 0.4 0 0 0
19-01-2019 11 (19:00) 5.7 (00:00) 8.3 10 (20:20) 5.28 (20:20) 4.8 0.4 0 1 3.4

Gráficas

Temp. máximas Temp. mínimas Temp. medias Precipitaciones Rachas de viento máximas Velocidades máximas media en intervalos de 10 minutos

Datos horarios

Fecha y hora oficial Temperatura (ºC) Velocidad del viento (km/h) Dirección del viento Racha (km/h) Dirección de racha Precipitación (mm) Presión (hPa) Tendencia (hPa) Humedad (%)
2019-02-17 23:00:00 8.6 5 Sudeste 9 Sudeste 0 -- -- 83
2019-02-17 22:00:00 9 5 Sudeste 8 Sudeste 0 -- -- 79
2019-02-17 21:00:00 10.3 4 Sur 8 Sudeste 0 -- -- 73
2019-02-17 20:00:00 12.5 6 Sudeste 17 Sur 0 -- -- 61
2019-02-17 19:00:00 14.4 11 Sur 21 Sur 0 -- -- 52
2019-02-17 18:00:00 16.5 9 Sur 25 Sur 0 -- -- 46
2019-02-17 17:00:00 17.8 15 Sur 24 Sur 0 -- -- 41
2019-02-17 16:00:00 18.1 12 Sudoeste 24 Sur 0 -- -- 42
2019-02-17 15:00:00 17.9 13 Sur 31 Sudeste 0 -- -- 43
2019-02-17 14:00:00 16.8 15 Sudeste 23 Sudeste 0 -- -- 46
2019-02-17 13:00:00 16.1 10 Sudeste 19 Sur 0 -- -- 45
2019-02-17 12:00:00 14.5 8 Sudeste 20 Sudeste 0 -- -- 52
2019-02-17 11:00:00 12.6 12 Sur 17 Sur 0 -- -- 63
2019-02-17 10:00:00 7.7 9 Sudeste 14 Sudeste 0 -- -- 80
2019-02-17 09:00:00 3.1 12 Sudeste 14 Sudeste 0 -- -- 90
2019-02-17 08:00:00 2.4 9 Sudeste 12 Sudeste 0 -- -- 92
2019-02-17 07:00:00 3.3 9 Sur 12 Sudeste 0 -- -- 89
2019-02-17 06:00:00 3.7 8 Sur 13 Sudeste 0 -- -- 89
2019-02-17 05:00:00 4.2 9 Sudeste 16 Sudeste 0 -- -- 85
2019-02-17 04:00:00 5.2 9 Sur 14 Sudeste 0 -- -- 84
2019-02-17 03:00:00 4.7 7 Sudeste 14 Sudeste 0 -- -- 85
2019-02-17 02:00:00 4.9 10 Sudeste 14 Sudeste 0 -- -- 82
2019-02-17 01:00:00 4.9 10 Sudeste 15 Sur 0 -- -- 85
2019-02-17 00:00:00 5.5 8 Sur 12 Sudeste 0 -- -- 85
2019-02-16 23:00:00 6.8 9 Sur 12 Sudeste 0 -- -- 80
2019-02-16 22:00:00 7.1 9 Sur 10 Sudeste 0 -- -- 75
2019-02-16 21:00:00 8.2 5 Sudeste 8 Sur 0 -- -- 70
2019-02-16 20:00:00 11.2 6 Sudeste 17 Sudoeste 0 -- -- 58
2019-02-16 19:00:00 14.5 5 Sudeste 9 Sur 0 -- -- 50
2019-02-16 18:00:00 18.8 6 Sur 18 Este 0 -- -- 36
2019-02-16 17:00:00 19.3 10 Este 20 Sudeste 0 -- -- 37
2019-02-16 16:00:00 18.6 12 Este 21 Este 0 -- -- 36
2019-02-16 15:00:00 18.2 12 Este 22 Este 0 -- -- 37
2019-02-16 14:00:00 18.6 11 Este 17 Sudeste 0 -- -- 42
2019-02-16 13:00:00 17.5 8 Este 15 Este 0 -- -- 47
2019-02-16 12:00:00 15.1 4 Noroeste 6 Noroeste 0 -- -- 65
2019-02-16 11:00:00 12.1 3 Noroeste 5 Noroeste 0 -- -- 76
2019-02-16 10:00:00 7.7 3 Sudeste 6 Este 0 -- -- 90
2019-02-16 09:00:00 4.7 5 Sur 9 Sudeste 0 -- -- 93
2019-02-16 08:00:00 4.8 8 Sudeste 11 Sudeste 0 -- -- 91
2019-02-16 07:00:00 5.3 10 Sudeste 12 Sudeste 0 -- -- 89
2019-02-16 06:00:00 5 6 Sudeste 9 Sudeste 0 -- -- 89
2019-02-16 05:00:00 5.1 4 Sudeste 7 Sudeste 0 -- -- 89
2019-02-16 04:00:00 4.9 5 Sudeste 9 Sudeste 0 -- -- 91
2019-02-16 03:00:00 4.6 5 Sudeste 8 Sudeste 0 -- -- 92
2019-02-16 02:00:00 4.8 5 Sudeste 8 Sur 0 -- -- 90
2019-02-16 01:00:00 5.3 2 Sudeste 8 Sudeste 0 -- -- 90
2019-02-16 00:00:00 5.9 5 Sudeste 8 Sudeste 0 -- -- 89
2019-02-15 23:00:00 6.1 4 Sudeste 5 Sudeste 0 -- -- 88
2019-02-15 22:00:00 7.1 0 Calma 4 Sudeste 0 -- -- 83
2019-02-15 21:00:00 8.5 3 Sudeste 5 Nordeste 0 -- -- 79
2019-02-15 20:00:00 12.6 0 Calma 12 Nordeste 0 -- -- 64
2019-02-15 19:00:00 15.2 5 Nordeste 15 Nordeste 0 -- -- 56
2019-02-15 18:00:00 17.9 7 Nordeste 16 Este 0 -- -- 48
2019-02-15 17:00:00 19.3 7 Este 21 Nordeste 0 -- -- 40
2019-02-15 16:00:00 19.8 12 Este 19 Este 0 -- -- 37
2019-02-15 15:00:00 19 13 Este 22 Este 0 -- -- 41
2019-02-15 14:00:00 17.9 13 Este 24 Este 0 -- -- 44
2019-02-15 13:00:00 16.9 13 Este 29 Este 0 -- -- 51
2019-02-15 12:00:00 15.4 13 Sudeste 21 Sudeste 0 -- -- 55
2019-02-15 11:00:00 11.9 15 Sudeste 20 Sudeste 0 -- -- 73
2019-02-15 10:00:00 9 13 Sudeste 18 Sudeste 0 -- -- 81
2019-02-15 09:00:00 3.5 10 Sudeste 13 Sudeste 0 -- -- 91
2019-02-15 08:00:00 3.8 10 Sudeste 15 Sudeste 0 -- -- 90
2019-02-15 07:00:00 3.2 11 Sudeste 15 Sur 0 -- -- 93
2019-02-15 06:00:00 2.5 9 Sudeste 14 Sudeste 0 -- -- 93
2019-02-15 05:00:00 2.4 12 Sudeste 16 Sur 0 -- -- 93
2019-02-15 04:00:00 2.6 10 Sudeste 14 Sur 0 -- -- 93
2019-02-15 03:00:00 4.1 11 Sudeste 14 Sudeste 0 -- -- 90
2019-02-15 02:00:00 4.4 9 Sudeste 13 Sudeste 0 -- -- 90
2019-02-15 01:00:00 5.6 9 Sudeste 12 Sudeste 0 -- -- 88
2019-02-15 00:00:00 6.1 6 Sur 11 Sur 0 -- -- 88
2019-02-14 23:00:00 7.2 8 Sudeste 17 Sur 0 -- -- 83
2019-02-14 22:00:00 7.9 10 Sudeste 14 Sur 0 -- -- 83
2019-02-14 21:00:00 10.1 5 Sur 13 Sur 0 -- -- 76
2019-02-14 20:00:00 11.5 11 Sudeste 14 Sur 0 -- -- 71
2019-02-14 19:00:00 14.4 4 Sudeste 19 Sudeste 0 -- -- 61
2019-02-14 18:00:00 17.7 14 Sudeste 23 Sudoeste 0 -- -- 49
2019-02-14 17:00:00 19.8 8 Sur 18 Sudeste 0 -- -- 42
2019-02-14 16:00:00 19.4 13 Sudeste 25 Sudeste 0 -- -- 43
2019-02-14 15:00:00 18.4 14 Sudeste 28 Sudeste 0 -- -- 47
2019-02-14 14:00:00 17.1 18 Sudeste 30 Sudeste 0 -- -- 51
2019-02-14 13:00:00 16.1 17 Sudeste 30 Sudeste 0 -- -- 53
2019-02-14 12:00:00 14.5 19 Sudeste 33 Sudeste 0 -- -- 58
2019-02-14 11:00:00 11.9 23 Sudeste 33 Sudeste 0 -- -- 68
2019-02-14 10:00:00 9 13 Sur 17 Sur 0 -- -- 81
2019-02-14 09:00:00 4.1 11 Sudeste 16 Sur 0 -- -- 88
2019-02-14 08:00:00 2.8 11 Sudeste 13 Sudeste 0 -- -- 91
2019-02-14 07:00:00 1.9 9 Sudeste 15 Sudeste 0 -- -- 91
2019-02-14 06:00:00 2.4 11 Sudeste 15 Sudeste 0 -- -- 89
2019-02-14 05:00:00 3.5 10 Sudeste 14 Sudeste 0 -- -- 86
2019-02-14 04:00:00 4 12 Sudeste 18 Sur 0 -- -- 84
2019-02-14 03:00:00 4.1 10 Sudeste 17 Sudeste 0 -- -- 85
2019-02-14 02:00:00 3.8 10 Sudeste 15 Sudeste 0 -- -- 89
2019-02-14 01:00:00 4.4 8 Sudeste 13 Sur 0 -- -- 90
2019-02-14 00:00:00 5.2 7 Sudeste 9 Sudeste 0 -- -- 88
2019-02-13 23:00:00 6.7 8 Sudeste 9 Sudeste 0 -- -- 84
2019-02-13 22:00:00 7.8 7 Sur 9 Sur 0 -- -- 82
2019-02-13 21:00:00 8.9 7 Sudeste 10 Sudeste 0 -- -- 82
2019-02-13 20:00:00 10.3 7 Sudeste 8 Sudeste 0 -- -- 78
2019-02-13 19:00:00 15.4 0 Calma 17 Este 0 -- -- 57
2019-02-13 18:00:00 17.7 9 Este 18 Este 0 -- -- 47
2019-02-13 17:00:00 18.5 11 Este 25 Este 0 -- -- 47
2019-02-13 16:00:00 18.2 13 Sudeste 25 Este 0 -- -- 50
2019-02-13 15:00:00 17.8 13 Este 24 Este 0 -- -- 51
2019-02-13 14:00:00 17 8 Sudeste 18 Este 0 -- -- 54
2019-02-13 13:00:00 16 9 Este 20 Sudeste 0 -- -- 57
2019-02-13 12:00:00 15.3 9 Este 17 Este 0 -- -- 59
2019-02-13 11:00:00 12.1 5 Sur 10 Sur 0 -- -- 68
2019-02-13 10:00:00 8.1 5 Sudeste 12 Sudeste 0 -- -- 86
2019-02-13 09:00:00 3.7 9 Sudeste 13 Sur 0 -- -- 96
2019-02-13 08:00:00 3.3 8 Sudeste 11 Sur 0 -- -- 95
2019-02-13 07:00:00 4 8 Sur 10 Sudeste 0 -- -- 95
2019-02-13 06:00:00 4.7 9 Sur 12 Sur 0 -- -- 93
2019-02-13 05:00:00 4.2 9 Sudeste 12 Sudeste 0 -- -- 94
2019-02-13 04:00:00 4.6 6 Sudeste 10 Sudeste 0 -- -- 93
2019-02-13 03:00:00 5.4 7 Sur 12 Sudeste 0 -- -- 93
2019-02-13 02:00:00 5.6 8 Sudeste 10 Sudeste 0 -- -- 91
2019-02-13 01:00:00 5.9 7 Sudeste 13 Sudeste 0 -- -- 91
2019-02-13 00:00:00 6.9 9 Sudeste 10 Sudeste 0 -- -- 90
2019-02-12 23:00:00 7.3 8 Sudeste 13 Sudeste 0 -- -- 90
2019-02-12 22:00:00 9 8 Sur 15 Sudeste 0 -- -- 84
2019-02-12 21:00:00 9 6 Sudeste 10 Sudeste 0 -- -- 85
2019-02-12 20:00:00 10.9 5 Sudeste 7 Sudeste 0 -- -- 78
2019-02-12 19:00:00 13.9 5 Sudeste 14 Sur 0 -- -- 67
2019-02-12 18:00:00 17 7 Sur 18 Sudeste 0 -- -- 53
2019-02-12 17:00:00 18.4 10 Este 18 Este 0 -- -- 49
2019-02-12 16:00:00 17.5 9 Este 17 Sudeste 0 -- -- 52
2019-02-12 15:00:00 17.3 9 Sudeste 21 Sudeste 0 -- -- 52
2019-02-12 14:00:00 17.6 8 Este 19 Este 0 -- -- 49
2019-02-12 13:00:00 16.3 10 Sudeste 19 Sudeste 0 -- -- 52
2019-02-12 12:00:00 15.1 10 Sudeste 16 Sudeste 0 -- -- 51
2019-02-12 11:00:00 11.6 3 Sudoeste 5 Oeste 0 -- -- 67
2019-02-12 10:00:00 6.8 3 Noroeste 6 Sudeste 0 -- -- 92
2019-02-12 09:00:00 3.2 2 Sudeste 4 Sudeste 0 -- -- 97
2019-02-12 08:00:00 3.4 3 Sudeste 12 Sudeste 0 -- -- 94
2019-02-12 07:00:00 2.3 3 Sudeste 9 Sudeste 0 -- -- 97
2019-02-12 06:00:00 3.2 8 Sudeste 10 Sudeste 0 -- -- 96
2019-02-12 05:00:00 4.2 7 Sudeste 14 Sudeste 0 -- -- 96
2019-02-12 04:00:00 3.2 6 Sudeste 10 Sudeste 0 -- -- 96
2019-02-12 03:00:00 3 6 Sudeste 10 Sudeste 0 -- -- 97
2019-02-12 02:00:00 3.7 9 Sudeste 11 Sur 0 -- -- 94
2019-02-12 01:00:00 4.2 8 Sur 10 Sur 0 -- -- 97
2019-02-12 00:00:00 3.2 4 Sudeste 6 Sudeste 0 -- -- 95
2019-02-11 23:00:00 3.8 3 Sudeste 6 Sudeste 0 -- -- 94
2019-02-11 22:00:00 4.8 4 Sudeste 6 Sudeste 0 -- -- 92
2019-02-11 21:00:00 6 5 Sudeste 7 Sudeste 0 -- -- 90
2019-02-11 20:00:00 7.7 5 Sudeste 6 Sur 0 -- -- 84
2019-02-11 19:00:00 10.7 4 Noroeste 13 Noroeste 0 -- -- 74
2019-02-11 18:00:00 12.6 7 Oeste 17 Oeste 0 -- -- 65
2019-02-11 17:00:00 14.2 12 Noroeste 22 Noroeste 0 -- -- 57
2019-02-11 16:00:00 14.3 13 Noroeste 22 Noroeste 0 -- -- 57
2019-02-11 15:00:00 14 15 Noroeste 24 Noroeste 0 -- -- 57
2019-02-11 14:00:00 13.5 9 Norte 18 Norte 0 -- -- 62
2019-02-11 13:00:00 12.5 10 Noroeste 16 Norte 0 -- -- 66
2019-02-11 12:00:00 10.6 8 Noroeste 15 Noroeste 0 -- -- 79
2019-02-11 11:00:00 9.1 10 Noroeste 13 Noroeste 0 -- -- 86
2019-02-11 10:00:00 7.6 2 Noroeste 5 Sur 0 -- -- 95
2019-02-11 09:00:00 3.8 4 Sudeste 6 Sudeste 0 -- -- 99
2019-02-11 08:00:00 4.1 3 Sudeste 5 Sudeste 0 -- -- 97
2019-02-11 07:00:00 6.3 4 Sudeste 6 Sudeste 0 -- -- 97
2019-02-11 06:00:00 9.3 3 Noroeste 7 Noroeste 0 -- -- 98
2019-02-11 05:00:00 8.8 4 Noroeste 6 Noroeste 0 -- -- 97
2019-02-11 04:00:00 9.7 0 Calma 4 Norte 0 -- -- 94
2019-02-11 03:00:00 11.2 0 Calma 13 Noroeste 0 -- -- 91
2019-02-11 02:00:00 11.9 3 Sur 16 Oeste 0 -- -- 93
2019-02-11 01:00:00 12 6 Oeste 17 Sudoeste 0 -- -- 93
2019-02-11 00:00:00 11.8 3 Noroeste 19 Sudoeste 0 -- -- 93
2019-02-10 23:00:00 12.1 7 Oeste 17 Sudoeste 0 -- -- 90
2019-02-10 22:00:00 12.4 6 Oeste 24 Sur 0 -- -- 85
2019-02-10 21:00:00 12.7 8 Sudoeste 31 Oeste 0 -- -- 83
2019-02-10 20:00:00 12.9 14 Sudoeste 26 Sudoeste 0 -- -- 81
2019-02-10 19:00:00 13.3 8 Sur 25 Sudoeste 0 -- -- 76
2019-02-10 18:00:00 13.8 9 Oeste 21 Oeste 0 -- -- 71
2019-02-10 17:00:00 14.5 10 Sudoeste 21 Noroeste 0 -- -- 68
2019-02-10 16:00:00 15.2 9 Sudoeste 25 Oeste 0 -- -- 66
2019-02-10 15:00:00 14.5 14 Oeste 29 Sudoeste 0 -- -- 67
2019-02-10 14:00:00 12.2 14 Sudoeste 26 Sudoeste 0 -- -- 76
2019-02-10 13:00:00 12 9 Oeste 24 Oeste 0 -- -- 76
2019-02-10 12:00:00 11.3 5 Norte 32 Oeste 0 -- -- 77
2019-02-10 11:00:00 8.9 7 Sudeste 19 Sur 0 -- -- 85
2019-02-10 10:00:00 7.1 8 Sudeste 18 Sudeste 0 -- -- 93
2019-02-10 09:00:00 5.3 9 Sudeste 13 Sudeste 0 -- -- 99
2019-02-10 08:00:00 2.5 8 Sudeste 10 Sudeste 0 -- -- 97
2019-02-10 07:00:00 3 8 Sur 10 Sur 0 -- -- 97
2019-02-10 06:00:00 3.5 8 Sur 10 Sur 0 -- -- 97
2019-02-10 05:00:00 3.9 8 Sur 10 Sur 0 -- -- 97
2019-02-10 04:00:00 4.2 8 Sur 10 Sur 0 -- -- 98
2019-02-10 03:00:00 3.6 8 Sur 12 Sudeste 0 -- -- 97
2019-02-10 02:00:00 3.9 8 Sur 10 Sur 0 -- -- 98
2019-02-10 01:00:00 3.8 6 Sur 10 Sur 0 -- -- 97
2019-02-10 00:00:00 4.4 9 Sur 10 Sudeste 0 -- -- 96
2019-02-09 23:00:00 4.9 5 Sudeste 9 Sudeste 0 -- -- 95
2019-02-09 22:00:00 5.3 5 Sudeste 7 Sudeste 0 -- -- 95
2019-02-09 21:00:00 6.4 4 Sudeste 5 Noroeste 0 -- -- 91
2019-02-09 20:00:00 8.7 4 Noroeste 10 Noroeste 0 -- -- 88
2019-02-09 19:00:00 10.3 8 Noroeste 12 Noroeste 0 -- -- 83
2019-02-09 18:00:00 13.3 10 Noroeste 16 Noroeste 0 -- -- 72
2019-02-09 17:00:00 16.1 6 Oeste 13 Oeste 0 -- -- 56
2019-02-09 16:00:00 16 8 Oeste 17 Oeste 0 -- -- 57
2019-02-09 15:00:00 15.9 8 Sudoeste 19 Sur 0 -- -- 59
2019-02-09 14:00:00 15.2 10 Sur 21 Sur 0 -- -- 57
2019-02-09 13:00:00 14.6 5 Sur 15 Sur 0 -- -- 62
2019-02-09 12:00:00 12.7 3 Sur 8 Sudeste 0 -- -- 71
2019-02-09 11:00:00 9.5 6 Sudeste 12 Sur 0 -- -- 82
2019-02-09 10:00:00 4.4 8 Sur 13 Sudeste 0 -- -- 96
2019-02-09 09:00:00 1.7 9 Sur 13 Sur 0 -- -- 99
2019-02-09 08:00:00 0.8 8 Sur 12 Sur 0 -- -- 97
2019-02-09 07:00:00 0.7 8 Sudeste 11 Sur 0 -- -- 98
2019-02-09 06:00:00 1.3 8 Sur 11 Sur 0 -- -- 98
2019-02-09 05:00:00 1.5 8 Sur 11 Sudeste 0 -- -- 98
2019-02-09 04:00:00 0.9 6 Sudeste 10 Sudeste 0 -- -- 97
2019-02-09 03:00:00 1.6 6 Sudeste 9 Sudeste 0 -- -- 97
2019-02-09 02:00:00 2.6 6 Sur 12 Sur 0 -- -- 97
2019-02-09 01:00:00 2.2 4 Sudeste 9 Sur 0 -- -- 96
2019-02-09 00:00:00 2.8 5 Sudeste 9 Sudeste 0 -- -- 96
2019-02-08 23:00:00 4 2 Sur 6 Noroeste 0 -- -- 94
2019-02-08 22:00:00 5.7 5 Noroeste 7 Noroeste 0 -- -- 95
2019-02-08 21:00:00 5.4 3 Sudeste 6 Sudeste 0 -- -- 92
2019-02-08 20:00:00 7.5 3 Sudeste 5 Sudeste 0 -- -- 88
2019-02-08 19:00:00 10.3 3 Norte 14 Norte 0 -- -- 82
2019-02-08 18:00:00 12.3 10 Noroeste 15 Noroeste 0 -- -- 77
2019-02-08 17:00:00 13.7 11 Noroeste 17 Noroeste 0 -- -- 71
2019-02-08 16:00:00 14 9 Noroeste 17 Noroeste 0 -- -- 68
2019-02-08 15:00:00 13.6 11 Noroeste 15 Noroeste 0 -- -- 70
2019-02-08 14:00:00 13 11 Noroeste 18 Noroeste 0 -- -- 74
2019-02-08 13:00:00 12.9 13 Noroeste 20 Noroeste 0 -- -- 74
2019-02-08 12:00:00 13.9 3 Este 10 Este 0 -- -- 66
2019-02-08 11:00:00 10.7 6 Sur 10 Sur 0 -- -- 75
2019-02-08 10:00:00 6.2 7 Sur 9 Sudeste 0 -- -- 87
2019-02-08 09:00:00 0.9 5 Sudeste 8 Sudeste 0 -- -- 95
2019-02-08 08:00:00 1 4 Sudeste 13 Sudeste 0 -- -- 94
2019-02-08 07:00:00 1.4 9 Sudeste 13 Sudeste 0 -- -- 90
2019-02-08 06:00:00 2.7 9 Sur 11 Sur 0 -- -- 85
2019-02-08 05:00:00 2.4 9 Sur 13 Sur 0 -- -- 87
2019-02-08 04:00:00 2.5 9 Sur 12 Sudeste 0 -- -- 87
2019-02-08 03:00:00 2.6 8 Sur 11 Sudeste 0 -- -- 88
2019-02-08 02:00:00 2.7 9 Sudeste 13 Sur 0 -- -- 87
2019-02-08 01:00:00 3.3 9 Sudeste 12 Sudeste 0 -- -- 86
2019-02-08 00:00:00 4 7 Sur 13 Sudeste 0 -- -- 83
2019-02-07 23:00:00 3.9 7 Sudeste 9 Sudeste 0 -- -- 84
2019-02-07 22:00:00 3.9 7 Sudeste 8 Sudeste 0 -- -- 85
2019-02-07 21:00:00 5.3 4 Sudeste 5 Sudeste 0 -- -- 81
2019-02-07 20:00:00 7.4 2 Sur 7 Noroeste 0 -- -- 73
2019-02-07 19:00:00 10.6 7 Norte 16 Norte 0 -- -- 59
2019-02-07 18:00:00 13.6 11 Noroeste 18 Noroeste 0 -- -- 64
2019-02-07 17:00:00 16 5 Noroeste 11 Noroeste 0 -- -- 54
2019-02-07 16:00:00 15.7 6 Noroeste 20 Noroeste 0 -- -- 54
2019-02-07 15:00:00 15.6 12 Noroeste 15 Noroeste 0 -- -- 55
2019-02-07 14:00:00 15.3 13 Noroeste 17 Noroeste 0 -- -- 51
2019-02-07 13:00:00 16.1 3 Sur 8 Sudeste 0 -- -- 47
2019-02-07 12:00:00 13.6 3 Norte 8 Sudeste 0 -- -- 43
2019-02-07 11:00:00 11.4 4 Sur 10 Sur 0 -- -- 70
2019-02-07 10:00:00 6.9 8 Sur 12 Sur 0 -- -- 88
2019-02-07 09:00:00 2.1 7 Sudeste 10 Sudeste 0 -- -- 98
2019-02-07 08:00:00 2.1 8 Sudeste 12 Sudeste 0 -- -- 97
2019-02-07 07:00:00 2.8 7 Sudeste 10 Sudeste 0 -- -- 96
2019-02-07 06:00:00 3.1 7 Sudeste 9 Sudeste 0 -- -- 95
2019-02-07 05:00:00 3.5 6 Sudeste 9 Sudeste 0 -- -- 95
2019-02-07 04:00:00 3.7 6 Sudeste 11 Sudeste 0 -- -- 95
2019-02-07 03:00:00 4.1 8 Sudeste 10 Sudeste 0 -- -- 94
2019-02-07 02:00:00 4.6 8 Sur 11 Sudeste 0 -- -- 93
2019-02-07 01:00:00 4.4 8 Sudeste 10 Sur 0 -- -- 92
2019-02-07 00:00:00 5.4 9 Sudeste 10 Sur 0 -- -- 90
2019-02-06 23:00:00 5.7 6 Sudeste 8 Sudeste 0 -- -- 90
2019-02-06 22:00:00 6.1 6 Sudeste 8 Sur 0 -- -- 89
2019-02-06 21:00:00 7.1 5 Sudeste 6 Sudeste 0 -- -- 87
2019-02-06 20:00:00 9.2 3 Sudeste 5 Noroeste 0 -- -- 80
2019-02-06 19:00:00 12.8 3 Noroeste -- -- 0 -- -- 68
2019-02-06 18:00:00 15.1 7 Noroeste 22 Noroeste 0 -- -- 59
2019-02-06 17:00:00 17.8 11 Noroeste 16 Noroeste 0 -- -- 51
2019-02-06 16:00:00 18.7 8 Noroeste 13 Noroeste 0 -- -- 47
2019-02-06 15:00:00 18.7 5 Noroeste 11 Noroeste 0 -- -- 41
2019-02-06 14:00:00 18.4 4 Noroeste 9 Norte 0 -- -- 41
2019-02-06 13:00:00 17.7 3 Este 11 Sudeste 0 -- -- 41
2019-02-06 12:00:00 15.5 7 Sudeste 11 Sudeste 0 -- -- 51
2019-02-06 11:00:00 12.2 8 Sur 13 Sur 0 -- -- 65
2019-02-06 10:00:00 7.1 9 Sudeste 11 Sudeste 0 -- -- 81
2019-02-06 09:00:00 2.3 8 Sudeste 10 Sudeste 0 -- -- 92
2019-02-06 08:00:00 1.9 8 Sudeste 9 Sudeste 0 -- -- 92
2019-02-06 07:00:00 2.3 8 Sudeste 10 Sudeste 0 -- -- 90
2019-02-06 06:00:00 2.5 9 Sudeste 13 Sudeste 0 -- -- 91
2019-02-06 05:00:00 2.8 9 Sudeste 13 Sudeste 0 -- -- 91
2019-02-06 04:00:00 2.3 8 Sudeste 10 Sur 0 -- -- 94
2019-02-06 03:00:00 2.7 5 Sudeste 10 Sudeste 0 -- -- 95
2019-02-06 02:00:00 3.2 6 Sudeste 10 Sudeste 0 -- -- 95
2019-02-06 01:00:00 3.4 8 Sudeste 11 Sudeste 0 -- -- 94
2019-02-06 00:00:00 3.8 6 Sudeste 9 Sudeste 0 -- -- 93
2019-02-05 23:00:00 4.3 6 Sudeste 8 Sudeste 0 -- -- 91
2019-02-05 22:00:00 4.8 5 Sudeste 6 Sudeste 0 -- -- 89
2019-02-05 21:00:00 6 4 Sudeste 6 Sur 0 -- -- 85
2019-02-05 20:00:00 7.7 3 Sudeste 4 Sudeste 0 -- -- 79
2019-02-05 19:00:00 11.8 0 Calma 7 Noroeste 0 -- -- 64
2019-02-05 18:00:00 14.8 6 Noroeste 10 Noroeste 0 -- -- 50
2019-02-05 17:00:00 17.6 8 Noroeste 14 Noroeste 0 -- -- 43
2019-02-05 16:00:00 17.7 8 Noroeste 13 Noroeste 0 -- -- 44
2019-02-05 15:00:00 17.5 8 Noroeste 13 Noroeste 0 -- -- 40
2019-02-05 14:00:00 16.3 5 Noroeste 10 Noroeste 0 -- -- 40
2019-02-05 13:00:00 14.8 4 Noroeste 9 Noroeste 0 -- -- 45
2019-02-05 12:00:00 12.9 4 Noroeste 6 Noroeste 0 -- -- 52
2019-02-05 11:00:00 11.2 0 Calma 10 Sudeste 0 -- -- 51
2019-02-05 10:00:00 5.3 4 Sudeste 9 Sudeste 0 -- -- 80
2019-02-05 09:00:00 0.4 4 Sudeste 10 Sur 0 -- -- 92
2019-02-05 08:00:00 -0.2 6 Sudeste 9 Sudeste 0 -- -- 93
2019-02-05 07:00:00 0 7 Sudeste 11 Sudeste 0 -- -- 92
2019-02-05 06:00:00 0.6 8 Sudeste 12 Sudeste 0 -- -- 90
2019-02-05 05:00:00 1.3 9 Sudeste 12 Sur 0 -- -- 87
2019-02-05 04:00:00 0.1 6 Sudeste 8 Sudeste 0 -- -- 93
2019-02-05 03:00:00 0.2 6 Sudeste 9 Sudeste 0 -- -- 93
2019-02-05 02:00:00 0.7 6 Sudeste 10 Sudeste 0 -- -- 91
2019-02-05 01:00:00 0.7 5 Sudeste 9 Sur 0 -- -- 92
2019-02-05 00:00:00 1.1 5 Sudeste 8 Sudeste 0 -- -- 92
2019-02-04 23:00:00 1.7 5 Sudeste 6 Sudeste 0 -- -- 90
2019-02-04 22:00:00 2.5 5 Sudeste 7 Sudeste 0 -- -- 89
2019-02-04 21:00:00 3.5 4 Sudeste 6 Sudeste 0 -- -- 86
2019-02-04 20:00:00 4.9 0 Calma 4 Noroeste 0 -- -- 81
2019-02-04 19:00:00 8.4 3 Noroeste 8 Noroeste 0 -- -- 66
2019-02-04 18:00:00 10.8 7 Noroeste 13 Noroeste 0 -- -- 54
2019-02-04 17:00:00 13.6 8 Noroeste 14 Noroeste 0 -- -- 46
2019-02-04 16:00:00 13.8 8 Noroeste 14 Noroeste 0 -- -- 47
2019-02-04 15:00:00 14.1 5 Noroeste 12 Noroeste 0 -- -- 40
2019-02-04 14:00:00 13.3 5 Norte 12 Este 0 -- -- 38
2019-02-04 13:00:00 11.6 4 Noroeste 12 Sur 0 -- -- 42
2019-02-04 12:00:00 10.4 5 Sur 9 Sur 0 -- -- 47
2019-02-04 11:00:00 7.1 6 Sudeste 12 Sudeste 0 -- -- 64
2019-02-04 10:00:00 2.5 9 Sudeste 12 Sudeste 0 -- -- 80
2019-02-04 09:00:00 -1.6 9 Sudeste 10 Sudeste 0 -- -- 91
2019-02-04 08:00:00 -2.2 8 Sudeste 9 Sudeste 0 -- -- 93
2019-02-04 07:00:00 -2.2 8 Sudeste 10 Sudeste 0 -- -- 92
2019-02-04 06:00:00 -1.3 6 Sur 12 Sur 0 -- -- 89
2019-02-04 05:00:00 -0.8 9 Sur 13 Sur 0 -- -- 90
2019-02-04 04:00:00 -0.8 9 Sudeste 13 Sur 0 -- -- 90
2019-02-04 03:00:00 -0.8 10 Sudeste 15 Sur 0 -- -- 92
2019-02-04 02:00:00 -1.1 6 Sudeste 9 Sudeste 0 -- -- 93
2019-02-04 01:00:00 -0.9 5 Sudeste 9 Sudeste 0 -- -- 92
2019-02-04 00:00:00 -0.7 6 Sudeste 8 Sudeste 0 -- -- 92
2019-02-03 23:00:00 -0.1 5 Sudeste 8 Sudeste 0 -- -- 90
2019-02-03 22:00:00 0.2 6 Sudeste 8 Sudeste 0 -- -- 91
2019-02-03 21:00:00 0.9 3 Sur 6 Sudeste 0 -- -- 90
2019-02-03 20:00:00 2.5 3 Sudeste 4 Sudeste 0 -- -- 85
2019-02-03 19:00:00 5.5 0 Calma 9 Noroeste 0 -- -- 75
2019-02-03 18:00:00 7.7 6 Noroeste 13 Noroeste 0 -- -- 59
2019-02-03 17:00:00 10 7 Noroeste 20 Norte 0 -- -- 51
2019-02-03 16:00:00 9.5 10 Noroeste 18 Norte 0 -- -- 57
2019-02-03 15:00:00 8.9 9 Noroeste 19 Noroeste 0 -- -- 66
2019-02-03 14:00:00 7.9 10 Norte 20 Noroeste 0 -- -- 63
2019-02-03 13:00:00 6.7 13 Noroeste 23 Norte 0 -- -- 68
2019-02-03 12:00:00 5.6 17 Noroeste 27 Noroeste 0 -- -- 73
2019-02-03 11:00:00 4.6 12 Noroeste 24 Noroeste 0 -- -- 78
2019-02-03 10:00:00 2.1 6 Norte 11 Noroeste 0 -- -- 88
2019-02-03 09:00:00 -0.5 5 Noroeste 13 Noroeste 0 -- -- 93
2019-02-03 08:00:00 -1.1 9 Noroeste 11 Noroeste 0 -- -- 95
2019-02-03 07:00:00 -1.9 5 Oeste 11 Noroeste 0 -- -- 96
2019-02-03 06:00:00 -2 0 Calma 6 Sudeste 0 -- -- 95
2019-02-03 05:00:00 -1.5 5 Sudeste 6 Sudeste 0 -- -- 95
2019-02-03 04:00:00 -1.3 4 Sur 6 Sur 0 -- -- 95
2019-02-03 03:00:00 -1.4 2 Sudeste 4 Nordeste 0 -- -- 95
2019-02-03 02:00:00 -1.1 0 Calma 3 Sudeste 0 -- -- 94
2019-02-03 01:00:00 -0.7 0 Calma 3 Este 0 -- -- 94
2019-02-03 00:00:00 -0.2 0 Calma 5 Noroeste 0 -- -- 91
2019-02-02 23:00:00 0.8 5 Sur 8 Sur 0 -- -- 86
2019-02-02 22:00:00 1 2 Sur 5 Noroeste 0 -- -- 86
2019-02-02 21:00:00 2.2 0 Calma 10 Noroeste 0 -- -- 83
2019-02-02 20:00:00 4.6 9 Norte 12 Noroeste 0 -- -- 67
2019-02-02 19:00:00 5.7 6 Norte 24 Noroeste 0 -- -- 65
2019-02-02 18:00:00 8.2 21 Noroeste 46 Noroeste 0 -- -- 53
2019-02-02 17:00:00 9.5 30 Noroeste 46 Norte 0 -- -- 47
2019-02-02 16:00:00 9.4 35 Noroeste 54 Noroeste 0 -- -- 52
2019-02-02 15:00:00 9.1 35 Noroeste 52 Noroeste 0 -- -- 56
2019-02-02 14:00:00 8.9 33 Noroeste 54 Noroeste 0 -- -- 63
2019-02-02 13:00:00 8.2 34 Noroeste 51 Noroeste 0 -- -- 62
2019-02-02 12:00:00 7.5 30 Noroeste 45 Noroeste 0 -- -- 64
2019-02-02 11:00:00 6.4 30 Noroeste 42 Noroeste 0 -- -- 68
2019-02-02 10:00:00 5.7 30 Noroeste 45 Noroeste 0 -- -- 69
2019-02-02 09:00:00 4.5 26 Noroeste 40 Noroeste 0 -- -- 75
2019-02-02 08:00:00 4.5 22 Noroeste 46 Oeste 0 -- -- 77
2019-02-02 07:00:00 5.7 36 Noroeste 54 Noroeste 0 -- -- 75
2019-02-02 06:00:00 5.8 26 Oeste 46 Oeste 0 -- -- 82
2019-02-02 05:00:00 6.2 27 Noroeste 50 Noroeste 0 -- -- 82
2019-02-02 04:00:00 6.5 22 Noroeste 36 Noroeste 0 -- -- 82
2019-02-02 03:00:00 6.4 7 Oeste 31 Noroeste 0 -- -- 83
2019-02-02 02:00:00 6.7 12 Oeste 34 Noroeste 0.2 -- -- 83
2019-02-02 01:00:00 6.7 15 Noroeste 36 Noroeste 0.2 -- -- 89
2019-02-02 00:00:00 6.3 15 Noroeste 33 Noroeste 0 -- -- 86
2019-02-01 23:00:00 5.8 10 Sudoeste 30 Noroeste 0 -- -- 86
2019-02-01 22:00:00 6.4 14 Noroeste 44 Noroeste 0 -- -- 81
2019-02-01 21:00:00 5.9 22 Noroeste 42 Noroeste 0 -- -- 85
2019-02-01 20:00:00 6.1 21 Noroeste 52 Noroeste 0 -- -- 84
2019-02-01 19:00:00 5.9 30 Noroeste 62 Noroeste 1.2 -- -- 87
2019-02-01 18:00:00 8 24 Noroeste 51 Noroeste 0 -- -- 82
2019-02-01 17:00:00 8.2 24 Noroeste 60 Noroeste 0.6 -- -- 89
2019-02-01 16:00:00 7.2 32 Noroeste 60 Noroeste 1.2 -- -- 93
2019-02-01 15:00:00 9.3 19 Oeste 62 Oeste 0.6 -- -- 80
2019-02-01 14:00:00 11.6 25 Oeste 60 Oeste 0 -- -- 61
2019-02-01 13:00:00 11 20 Oeste 53 Noroeste 0 -- -- 66
2019-02-01 12:00:00 9.7 21 Noroeste 49 Noroeste 0 -- -- 74
2019-02-01 11:00:00 9.2 19 Noroeste 52 Oeste 0 -- -- 76
2019-02-01 10:00:00 8.6 22 Noroeste 42 Noroeste 0 -- -- 78
2019-02-01 09:00:00 8.6 28 Noroeste 48 Noroeste 0 -- -- 81
2019-02-01 08:00:00 8.9 23 Noroeste 45 Noroeste 0.2 -- -- 82
2019-02-01 07:00:00 9 18 Noroeste 41 Noroeste 0 -- -- 84
2019-02-01 06:00:00 9.4 25 Noroeste 52 Noroeste 0 -- -- 85
2019-02-01 05:00:00 10.4 23 Noroeste 41 Noroeste 0.8 -- -- 92
2019-02-01 04:00:00 11.4 12 Oeste 42 Oeste 3.2 -- -- 91
2019-02-01 03:00:00 12.4 17 Oeste 49 Noroeste 5.8 -- -- 88
2019-02-01 02:00:00 12.3 8 Este 59 Sur 3 -- -- 93
2019-02-01 01:00:00 12.2 14 Sudeste 53 Sudoeste 2.4 -- -- 92
2019-02-01 00:00:00 11.9 8 Noroeste 34 Oeste 1.4 -- -- 94
2019-01-31 23:00:00 11.5 10 Este 55 Sudeste 0.8 -- -- 93
2019-01-31 22:00:00 11.4 16 Sudeste 53 Sur 0 -- -- 92
2019-01-31 21:00:00 11.5 19 Sudeste 43 Sur 0.4 -- -- 91
2019-01-31 20:00:00 11.8 16 Oeste 38 Oeste 0.8 -- -- 92
2019-01-31 19:00:00 11.6 12 Sudeste 40 Oeste 0 -- -- 92
2019-01-31 18:00:00 12.1 18 Oeste 60 Oeste 0 -- -- 85
2019-01-31 17:00:00 12.1 21 Sudeste 63 Sudeste 0.6 -- -- 88
2019-01-31 16:00:00 12.7 10 Este 27 Sudoeste 1.2 -- -- 92
2019-01-31 15:00:00 13.1 13 Noroeste 44 Noroeste 0 -- -- 87
2019-01-31 14:00:00 12.3 11 Oeste 40 Oeste 0.2 -- -- 91
2019-01-31 13:00:00 11.6 8 Norte 31 Noroeste 0.6 -- -- 94
2019-01-31 12:00:00 11.3 11 Oeste 42 Oeste 0.2 -- -- 93
2019-01-31 11:00:00 11.1 12 Oeste 26 Oeste 0.4 -- -- 94
2019-01-31 10:00:00 10.9 8 Oeste 26 Oeste 0.8 -- -- 94
2019-01-31 09:00:00 10.7 10 Oeste 37 Oeste 0.4 -- -- 93
2019-01-31 08:00:00 11.3 13 Oeste 35 Oeste 0 -- -- 87
2019-01-31 07:00:00 11.2 10 Oeste 31 Oeste 0.8 -- -- 94
2019-01-31 06:00:00 11.2 12 Oeste 30 Oeste 0.8 -- -- 94
2019-01-31 05:00:00 11.3 16 Oeste 32 Oeste 0.2 -- -- 93
2019-01-31 04:00:00 11.2 19 Oeste 32 Oeste 0 -- -- 94
2019-01-31 03:00:00 11 8 Oeste 33 Oeste 0.4 -- -- 95
2019-01-31 02:00:00 10.8 10 Oeste 28 Oeste 0.2 -- -- 95
2019-01-31 01:00:00 10.7 8 Oeste 23 Sur 0.6 -- -- 94
2019-01-31 00:00:00 10.7 9 Sudeste 37 Noroeste 0.4 -- -- 93
2019-01-30 23:00:00 10.6 9 Sudoeste 40 Oeste 0.6 -- -- 92
2019-01-30 22:00:00 10.7 10 Oeste 32 Oeste 0 -- -- 90
2019-01-30 21:00:00 10.7 10 Oeste 35 Oeste 0 -- -- 87
2019-01-30 20:00:00 10.7 10 Oeste 31 Noroeste 0.2 -- -- 92
2019-01-30 19:00:00 9.7 6 Sur 24 Oeste 0.2 -- -- 93
2019-01-30 18:00:00 9.2 7 Sur 26 Oeste 0 -- -- 92
2019-01-30 17:00:00 9.3 8 Sudoeste 26 Sur 0 -- -- 89
2019-01-30 16:00:00 10 6 Nordeste 25 Sur 0 -- -- 84
2019-01-30 15:00:00 11.1 9 Sudoeste 21 Sudoeste 0 -- -- 74
2019-01-30 14:00:00 12 9 Oeste 25 Oeste 0 -- -- 64
2019-01-30 13:00:00 12 7 Noroeste 25 Noroeste 0 -- -- 65
2019-01-30 12:00:00 11.1 13 Noroeste 27 Noroeste 0 -- -- 69
2019-01-30 11:00:00 10 17 Noroeste 26 Noroeste 0 -- -- 75
2019-01-30 10:00:00 8.3 12 Noroeste 25 Noroeste 0 -- -- 83
2019-01-30 09:00:00 7.9 17 Noroeste 33 Noroeste 0 -- -- 83
2019-01-30 08:00:00 7.8 18 Noroeste 27 Noroeste 0 -- -- 84
2019-01-30 07:00:00 7.7 16 Noroeste 30 Noroeste 0 -- -- 83
2019-01-30 06:00:00 8 22 Noroeste 33 Noroeste 0 -- -- 79
2019-01-30 05:00:00 8 19 Noroeste 31 Noroeste 0 -- -- 78
2019-01-30 04:00:00 8 21 Noroeste 33 Noroeste 0 -- -- 79
2019-01-30 03:00:00 8.2 22 Noroeste 33 Noroeste 0 -- -- 83
2019-01-30 02:00:00 8.7 24 Noroeste 39 Noroeste 0 -- -- 83
2019-01-30 01:00:00 9.9 15 Noroeste 30 Noroeste 0 -- -- 88
2019-01-30 00:00:00 9.8 8 Noroeste 30 Noroeste 0 -- -- 92
2019-01-29 23:00:00 10 14 Noroeste 40 Noroeste 0 -- -- 89
2019-01-29 22:00:00 9.8 11 Oeste 27 Noroeste 0 -- -- 89
2019-01-29 21:00:00 10 5 Noroeste 22 Noroeste 0 -- -- 84
2019-01-29 20:00:00 10.4 12 Oeste 31 Oeste 0 -- -- 83
2019-01-29 19:00:00 10.5 20 Noroeste 45 Noroeste 0 -- -- 79
2019-01-29 18:00:00 11 22 Noroeste 39 Noroeste 0 -- -- 76
2019-01-29 17:00:00 11.7 23 Noroeste 43 Noroeste 0 -- -- 74
2019-01-29 16:00:00 11.6 24 Noroeste 43 Noroeste 0 -- -- 76
2019-01-29 15:00:00 11.9 23 Noroeste 43 Noroeste 0 -- -- 75
2019-01-29 14:00:00 10.8 22 Noroeste 39 Noroeste 0 -- -- 86
2019-01-29 13:00:00 10.9 11 Oeste 27 Noroeste 0 -- -- 83
2019-01-29 12:00:00 10.8 21 Noroeste 38 Noroeste 0 -- -- 79
2019-01-29 11:00:00 9.9 17 Oeste 32 Noroeste 0 -- -- 83
2019-01-29 10:00:00 8.2 2 Noroeste 13 Oeste 0 -- -- 89
2019-01-29 09:00:00 7.5 2 Sudoeste 22 Oeste 0 -- -- 90
2019-01-29 08:00:00 7.4 17 Oeste 24 Oeste 0 -- -- 85
2019-01-29 07:00:00 7.4 13 Oeste 25 Noroeste 0 -- -- 84
2019-01-29 06:00:00 7.2 12 Oeste 28 Oeste 0 -- -- 88
2019-01-29 05:00:00 7.5 17 Oeste 27 Oeste 0 -- -- 87
2019-01-29 04:00:00 7.7 14 Oeste 23 Oeste 0 -- -- 88
2019-01-29 03:00:00 7.9 8 Oeste 19 Noroeste 0 -- -- 91
2019-01-29 02:00:00 8.6 15 Noroeste 33 Oeste 0 -- -- 87
2019-01-29 01:00:00 8 9 Noroeste 24 Oeste 0 -- -- 94
2019-01-29 00:00:00 7.8 11 Noroeste 23 Norte 0 -- -- 92
2019-01-28 23:00:00 7.9 12 Noroeste 20 Noroeste 0 -- -- 93
2019-01-28 22:00:00 9.5 16 Noroeste 25 Noroeste 0 -- -- 86
2019-01-28 21:00:00 9.1 14 Noroeste 28 Noroeste 0 -- -- 87
2019-01-28 20:00:00 9.6 18 Noroeste 31 Noroeste 0 -- -- 86
2019-01-28 19:00:00 10.3 21 Noroeste 33 Noroeste 0 -- -- 82
2019-01-28 18:00:00 11 20 Noroeste 39 Noroeste 0 -- -- 78
2019-01-28 17:00:00 11.5 24 Noroeste 40 Noroeste 0 -- -- 74
2019-01-28 16:00:00 11.7 24 Noroeste 34 Oeste 0 -- -- 73
2019-01-28 15:00:00 11.3 18 Noroeste 31 Noroeste 0 -- -- 74
2019-01-28 14:00:00 11.5 22 Noroeste 35 Noroeste 0 -- -- 71
2019-01-28 13:00:00 11.4 20 Noroeste 30 Noroeste 0 -- -- 71
2019-01-28 12:00:00 10.5 19 Noroeste 31 Noroeste 0 -- -- 73
2019-01-28 11:00:00 9.3 10 Noroeste 15 Noroeste 0 -- -- 76
2019-01-28 10:00:00 6.3 3 Noroeste 11 Oeste 0 -- -- 85
2019-01-28 09:00:00 2.7 8 Noroeste 14 Noroeste 0 -- -- 92
2019-01-28 08:00:00 2.3 5 Noroeste 10 Noroeste 0 -- -- 90
2019-01-28 07:00:00 2.5 6 Noroeste 11 Noroeste 0 -- -- 87
2019-01-28 06:00:00 2.9 10 Noroeste 16 Norte 0 -- -- 88
2019-01-28 05:00:00 4.6 12 Norte 22 Noroeste 0 -- -- 83
2019-01-28 04:00:00 4.6 13 Noroeste 22 Noroeste 0 -- -- 86
2019-01-28 03:00:00 1.5 4 Noroeste 8 Noroeste 0 -- -- 95
2019-01-28 02:00:00 0.9 3 Sudeste 6 Sudeste 0 -- -- 93
2019-01-28 01:00:00 1.8 4 Sur 6 Sudeste 0 -- -- 91
2019-01-28 00:00:00 3.2 2 Sudeste 12 Noroeste 0 -- -- 86
2019-01-27 23:00:00 4.6 7 Noroeste 16 Noroeste 0 -- -- 83
2019-01-27 22:00:00 5.1 8 Noroeste 15 Noroeste 0 -- -- 81
2019-01-27 21:00:00 5.5 9 Noroeste 12 Noroeste 0 -- -- 78
2019-01-27 20:00:00 6.4 2 Nordeste 13 Noroeste 0 -- -- 76
2019-01-27 19:00:00 8.4 14 Noroeste 30 Noroeste 0 -- -- 66
2019-01-27 18:00:00 10.5 19 Noroeste 37 Noroeste 0 -- -- 63
2019-01-27 17:00:00 11.8 21 Noroeste 48 Noroeste 0 -- -- 61
2019-01-27 16:00:00 11.9 27 Noroeste 42 Noroeste 0 -- -- 59
2019-01-27 15:00:00 11.7 23 Noroeste 37 Noroeste 0 -- -- 67
2019-01-27 14:00:00 10.3 19 Noroeste 34 Noroeste 0 -- -- 75
2019-01-27 13:00:00 11 23 Noroeste 42 Noroeste 0 -- -- 75
2019-01-27 12:00:00 9.9 21 Noroeste 35 Noroeste 0 -- -- 82
2019-01-27 11:00:00 8.3 4 Noroeste 7 Noroeste 0 -- -- 85
2019-01-27 10:00:00 5.2 2 Sudeste 8 Sudeste 0 -- -- 95
2019-01-27 09:00:00 1.5 6 Sudeste 11 Sudeste 0 -- -- 98
2019-01-27 08:00:00 1.8 2 Sudeste 10 Sudeste 0 -- -- 97
2019-01-27 07:00:00 1.6 4 Sudeste 6 Sudeste 0 -- -- 96
2019-01-27 06:00:00 3.6 2 Sudeste 10 Sudeste 0 -- -- 94
2019-01-27 05:00:00 5.1 4 Sudeste 17 Sudeste 0 -- -- 93
2019-01-27 04:00:00 6.1 12 Sudeste 19 Sur 0 -- -- 91
2019-01-27 03:00:00 5.1 6 Sudeste 10 Sudeste 0 -- -- 97
2019-01-27 02:00:00 4.9 4 Sudeste 9 Sudeste 0 -- -- 93
2019-01-27 01:00:00 5.8 6 Sudeste 14 Sudeste 0 -- -- 91
2019-01-27 00:00:00 6.8 9 Sudeste 12 Sudeste 0 -- -- 88
2019-01-26 23:00:00 7.8 2 Sudeste 6 Norte 0 -- -- 85
2019-01-26 22:00:00 9.2 4 Oeste 12 Sudoeste 0 -- -- 83
2019-01-26 21:00:00 9.9 4 Noroeste 6 Noroeste 0 -- -- 77
2019-01-26 20:00:00 12 4 Noroeste 18 Oeste 0 -- -- 69
2019-01-26 19:00:00 15.2 9 Oeste 19 Sur 0 -- -- 55
2019-01-26 18:00:00 16.8 8 Oeste 17 Oeste 0 -- -- 51
2019-01-26 17:00:00 19.2 4 Oeste 10 Noroeste 0 -- -- 49
2019-01-26 16:00:00 19.4 5 Noroeste 15 Oeste 0 -- -- 49
2019-01-26 15:00:00 19.3 6 Oeste 14 Oeste 0 -- -- 44
2019-01-26 14:00:00 19 5 Oeste 13 Oeste 0 -- -- 44
2019-01-26 13:00:00 18.2 3 Este 8 Este 0 -- -- 40
2019-01-26 12:00:00 15.8 7 Sudeste 13 Sudeste 0 -- -- 52
2019-01-26 11:00:00 11.6 7 Sur 12 Sudeste 0 -- -- 78
2019-01-26 10:00:00 6 11 Sudeste 16 Sur 0 -- -- 90
2019-01-26 09:00:00 2.8 10 Sur 12 Sur 0 -- -- 97
2019-01-26 08:00:00 2.3 9 Sudeste 13 Sudeste 0 -- -- 96
2019-01-26 07:00:00 2.9 9 Sudeste 14 Sur 0 -- -- 96
2019-01-26 06:00:00 3.5 9 Sur 13 Sudeste 0 -- -- 95
2019-01-26 05:00:00 4.2 10 Sudeste 14 Sur 0 -- -- 94
2019-01-26 04:00:00 4.2 11 Sudeste 13 Sudeste 0 -- -- 94
2019-01-26 03:00:00 4.3 9 Sudeste 14 Sudeste 0 -- -- 93
2019-01-26 02:00:00 4.5 9 Sudeste 14 Sudeste 0 -- -- 92
2019-01-26 01:00:00 4.6 9 Sudeste 12 Sur 0 -- -- 92
2019-01-26 00:00:00 4.6 6 Sudeste 9 Sudeste 0 -- -- 93
2019-01-25 23:00:00 5.3 6 Sudeste 10 Sudeste 0 -- -- 93
2019-01-25 22:00:00 6 7 Sudeste 9 Sudeste 0 -- -- 92
2019-01-25 21:00:00 7 5 Sudeste 6 Sur 0 -- -- 90
2019-01-25 20:00:00 8.8 0 Calma 6 Noroeste 0 -- -- 82
2019-01-25 19:00:00 12.4 4 Noroeste 8 Norte 0 -- -- 71
2019-01-25 18:00:00 15.1 6 Noroeste 8 Noroeste 0 -- -- 64
2019-01-25 17:00:00 19.4 5 Oeste 10 Oeste 0 -- -- 49
2019-01-25 16:00:00 18.7 7 Noroeste 10 Noroeste 0 -- -- 56
2019-01-25 15:00:00 18.1 4 Oeste 13 Oeste 0 -- -- 57
2019-01-25 14:00:00 15.9 10 Noroeste 14 Noroeste 0 -- -- 66
2019-01-25 13:00:00 14.1 10 Noroeste 15 Noroeste 0 -- -- 73
2019-01-25 12:00:00 12.8 8 Noroeste 12 Norte 0 -- -- 79
2019-01-25 11:00:00 11.2 2 Oeste 10 Sur 0 -- -- 78
2019-01-25 10:00:00 7 6 Sur 15 Sur 0 -- -- 92
2019-01-25 09:00:00 3.3 9 Sudeste 11 Sur 0 -- -- 97
2019-01-25 08:00:00 2.6 5 Sudeste 8 Sudeste 0 -- -- 98
2019-01-25 07:00:00 2.9 5 Sudeste 7 Sudeste 0 -- -- 98
2019-01-25 06:00:00 3 5 Sudeste 7 Sudeste 0 -- -- 98
2019-01-25 05:00:00 3.2 3 Sudeste 7 Sudeste 0 -- -- 98
2019-01-25 04:00:00 3.9 5 Sudeste 7 Sudeste 0 -- -- 98
2019-01-25 03:00:00 4.4 4 Sudeste 8 Sur 0 -- -- 98
2019-01-25 02:00:00 4.7 4 Sudeste 8 Sur 0 -- -- 98
2019-01-25 01:00:00 5.2 0 Calma 4 Sudeste 0 -- -- 97
2019-01-25 00:00:00 5.6 0 Calma 5 Sudeste 0 -- -- 96
2019-01-24 23:00:00 6.6 3 Sudeste 5 Sudeste 0 -- -- 94
2019-01-24 22:00:00 8.5 0 Calma 11 Noroeste 0 -- -- 92
2019-01-24 21:00:00 8.8 4 Norte 13 Norte 0 -- -- 90
2019-01-24 20:00:00 10.5 0 Calma 15 Noroeste 0 -- -- 80
2019-01-24 19:00:00 12.5 0 Calma 18 Noroeste 0 -- -- 75
2019-01-24 18:00:00 14.9 12 Noroeste 32 Noroeste 0 -- -- 67
2019-01-24 17:00:00 16.9 19 Noroeste 37 Noroeste 0 -- -- 61
2019-01-24 16:00:00 16.6 21 Noroeste 32 Noroeste 0 -- -- 63
2019-01-24 15:00:00 16.2 20 Noroeste 39 Noroeste 0 -- -- 68
2019-01-24 14:00:00 15.2 26 Noroeste 38 Norte 0 -- -- 71
2019-01-24 13:00:00 13.8 26 Noroeste 42 Noroeste 0 -- -- 74
2019-01-24 12:00:00 13.2 27 Noroeste 42 Noroeste 0 -- -- 76
2019-01-24 11:00:00 12.5 26 Noroeste 35 Noroeste 0 -- -- 78
2019-01-24 10:00:00 11 18 Noroeste 29 Noroeste 0 -- -- 84
2019-01-24 09:00:00 8.8 13 Noroeste 23 Noroeste 0 -- -- 89
2019-01-24 08:00:00 8.4 11 Noroeste 20 Noroeste 0 -- -- 89
2019-01-24 07:00:00 9.4 16 Noroeste 26 Noroeste 0 -- -- 88
2019-01-24 06:00:00 9.7 17 Noroeste 28 Noroeste 0 -- -- 87
2019-01-24 05:00:00 9.5 16 Noroeste 29 Noroeste 0 -- -- 88
2019-01-24 04:00:00 10 18 Noroeste 41 Oeste 0 -- -- 85
2019-01-24 03:00:00 9.9 16 Noroeste 39 Oeste 0 -- -- 86
2019-01-24 02:00:00 10.2 18 Noroeste 42 Noroeste 0 -- -- 86
2019-01-24 01:00:00 10.8 23 Noroeste 41 Noroeste 0 -- -- 82
2019-01-24 00:00:00 10.5 14 Noroeste 41 Noroeste 0 -- -- 85
2019-01-23 23:00:00 10.5 24 Noroeste 35 Noroeste 0 -- -- 85
2019-01-23 22:00:00 10.6 25 Noroeste 42 Noroeste 0 -- -- 86
2019-01-23 21:00:00 10.5 16 Noroeste 41 Noroeste 0 -- -- 85
2019-01-23 20:00:00 10.6 21 Noroeste 40 Noroeste 0 -- -- 83
2019-01-23 19:00:00 10.9 20 Noroeste 36 Noroeste 0 -- -- 81
2019-01-23 18:00:00 11.7 27 Noroeste 57 Noroeste 0 -- -- 77
2019-01-23 17:00:00 13.2 30 Noroeste 49 Noroeste 0 -- -- 70
2019-01-23 16:00:00 13.3 31 Noroeste 48 Noroeste 0 -- -- 71
2019-01-23 15:00:00 12.2 28 Noroeste 48 Noroeste 0 -- -- 73
2019-01-23 14:00:00 12.1 30 Noroeste 50 Noroeste 0 -- -- 74
2019-01-23 13:00:00 12.3 32 Noroeste 49 Noroeste 0 -- -- 74
2019-01-23 12:00:00 11.5 28 Noroeste 45 Noroeste 0 -- -- 74
2019-01-23 11:00:00 10.5 25 Noroeste 45 Noroeste 0 -- -- 78
2019-01-23 10:00:00 9.6 26 Noroeste 41 Noroeste 0 -- -- 77
2019-01-23 09:00:00 8.5 26 Noroeste 48 Noroeste 0 -- -- 85
2019-01-23 08:00:00 8.7 24 Noroeste 42 Noroeste 0 -- -- 86
2019-01-23 07:00:00 8.2 21 Noroeste 46 Noroeste 0 -- -- 87
2019-01-23 06:00:00 7.9 22 Noroeste 41 Noroeste 0 -- -- 86
2019-01-23 05:00:00 7.9 20 Noroeste 38 Noroeste 0 -- -- 84
2019-01-23 04:00:00 7.7 24 Noroeste 39 Oeste 0 -- -- 87
2019-01-23 03:00:00 7.9 24 Noroeste 34 Noroeste 0 -- -- 84
2019-01-23 02:00:00 7 13 Noroeste 32 Noroeste 0 -- -- 86
2019-01-23 01:00:00 7.6 26 Noroeste 44 Noroeste 0 -- -- 83
2019-01-23 00:00:00 7.4 18 Noroeste 31 Noroeste 0 -- -- 85
2019-01-22 23:00:00 8.3 17 Noroeste 39 Noroeste 0 -- -- 82
2019-01-22 22:00:00 9.5 22 Noroeste 34 Noroeste 0 -- -- 85
2019-01-22 21:00:00 9.5 15 Noroeste 32 Noroeste 0 -- -- 85
2019-01-22 20:00:00 9.3 17 Noroeste 34 Noroeste 0 -- -- 83
2019-01-22 19:00:00 9.4 21 Noroeste 42 Noroeste 0 -- -- 79
2019-01-22 18:00:00 9.4 19 Noroeste 35 Oeste 0 -- -- 76
2019-01-22 17:00:00 10.1 14 Noroeste 32 Noroeste 0 -- -- 74
2019-01-22 16:00:00 10.3 25 Noroeste 36 Noroeste 0 -- -- 72
2019-01-22 15:00:00 10.6 24 Noroeste 50 Noroeste 0 -- -- 69
2019-01-22 14:00:00 9.8 26 Noroeste 39 Oeste 0 -- -- 69
2019-01-22 13:00:00 9.4 22 Noroeste 41 Noroeste 0 -- -- 73
2019-01-22 12:00:00 8.2 18 Noroeste 27 Norte 0 -- -- 79
2019-01-22 11:00:00 6.6 8 Noroeste 17 Noroeste 0 -- -- 84
2019-01-22 10:00:00 3.2 3 Sur 5 Sudeste 0 -- -- 94
2019-01-22 09:00:00 2.3 2 Oeste 12 Sudeste 0 -- -- 94
2019-01-22 08:00:00 2 5 Sudeste 8 Sudeste 0 -- -- 95
2019-01-22 07:00:00 0.6 4 Sudeste 9 Sur 0 -- -- 96
2019-01-22 06:00:00 -0.2 6 Sur 8 Sur 0 -- -- 97
2019-01-22 05:00:00 -0.1 5 Sudeste 9 Sudeste 0 -- -- 96
2019-01-22 04:00:00 -0.1 6 Sudeste 9 Sudeste 0 -- -- 95
2019-01-22 03:00:00 0.6 7 Sur 9 Sur 0 -- -- 95
2019-01-22 02:00:00 0.2 6 Sudeste 8 Sudeste 0 -- -- 95
2019-01-22 01:00:00 0.5 6 Sudeste 9 Sudeste 0 -- -- 95
2019-01-22 00:00:00 0.5 6 Sudeste 8 Sudeste 0 -- -- 95
2019-01-21 23:00:00 0.9 5 Sudeste 7 Sudeste 0 -- -- 95
2019-01-21 22:00:00 1.6 6 Sudeste 8 Sudeste 0 -- -- 94
2019-01-21 21:00:00 2.4 6 Sudeste 8 Sudeste 0 -- -- 92
2019-01-21 20:00:00 3.7 4 Sudeste 5 Sudeste 0 -- -- 88
2019-01-21 19:00:00 6.4 0 Calma 9 Noroeste 0 -- -- 80
2019-01-21 18:00:00 8.2 7 Noroeste 12 Noroeste 0 -- -- 74
2019-01-21 17:00:00 11 8 Noroeste 19 Noroeste 0 -- -- 63
2019-01-21 16:00:00 11.1 8 Noroeste 15 Norte 0 -- -- 62
2019-01-21 15:00:00 10.4 11 Noroeste 18 Norte 0 -- -- 67
2019-01-21 14:00:00 9.7 8 Noroeste 18 Noroeste 0 -- -- 69
2019-01-21 13:00:00 9 10 Noroeste 17 Noroeste 0 -- -- 75
2019-01-21 12:00:00 7.9 10 Noroeste 16 Norte 0 -- -- 80
2019-01-21 11:00:00 6 9 Noroeste 13 Noroeste 0 -- -- 87
2019-01-21 10:00:00 2.4 0 Calma 4 Sudeste 0 -- -- 99
2019-01-21 09:00:00 -1 2 Sudeste 5 Sur 0 -- -- 98
2019-01-21 08:00:00 -0.7 3 Sudeste 6 Sudeste 0 -- -- 99
2019-01-21 07:00:00 -0.8 0 Calma 3 Sur 0 -- -- 98
2019-01-21 06:00:00 -0.7 0 Calma 2 Sur 0 -- -- 98
2019-01-21 05:00:00 -0.1 2 Sudeste 5 Sudeste 0 -- -- 98
2019-01-21 04:00:00 0.6 3 Sur 6 Sudeste 0 -- -- 97
2019-01-21 03:00:00 1.3 0 Calma 9 Noroeste 0 -- -- 96
2019-01-21 02:00:00 0.8 2 Noroeste 5 Noroeste 0 -- -- 97
2019-01-21 01:00:00 1 2 Sur 5 Sudeste 0 -- -- 97
2019-01-21 00:00:00 1.3 0 Calma 3 Sudeste 0 -- -- 96
2019-01-20 23:00:00 1.9 0 Calma 5 Sudeste 0 -- -- 95
2019-01-20 22:00:00 2.8 3 Sudeste 6 Sudeste 0 -- -- 93
2019-01-20 21:00:00 4.1 4 Sudeste 6 Noroeste 0 -- -- 91
2019-01-20 20:00:00 6 0 Calma 8 Norte 0 -- -- 84
2019-01-20 19:00:00 8.7 8 Noroeste 23 Noroeste 0 -- -- 73
2019-01-20 18:00:00 10.7 16 Noroeste 35 Noroeste 0 -- -- 64
2019-01-20 17:00:00 11.7 22 Noroeste 34 Norte 0 -- -- 61
2019-01-20 16:00:00 12 26 Noroeste 37 Noroeste 0 -- -- 61
2019-01-20 15:00:00 11.1 23 Noroeste 35 Noroeste 0 -- -- 68
2019-01-20 14:00:00 10.7 24 Norte 43 Noroeste 0 -- -- 70
2019-01-20 13:00:00 10.1 26 Noroeste 46 Noroeste 0 -- -- 72
2019-01-20 12:00:00 9.8 30 Norte 46 Norte 0 -- -- 72
2019-01-20 11:00:00 8.8 27 Noroeste 40 Noroeste 0 -- -- 80
2019-01-20 10:00:00 8.4 27 Noroeste 43 Noroeste 0 -- -- 84
2019-01-20 09:00:00 8.5 26 Noroeste 43 Noroeste 0 -- -- 86
2019-01-20 08:00:00 9 28 Noroeste 46 Noroeste 0 -- -- 88
2019-01-20 07:00:00 8.9 22 Noroeste 39 Noroeste 0 -- -- 92
2019-01-20 06:00:00 9.6 27 Noroeste 41 Noroeste 0 -- -- 91
2019-01-20 05:00:00 10.3 22 Noroeste 33 Noroeste 0.2 -- -- 93
2019-01-20 04:00:00 10.5 8 Noroeste 23 Oeste 0 -- -- 94
2019-01-20 03:00:00 10.6 10 Noroeste 26 Oeste 0 -- -- 91
2019-01-20 02:00:00 10.6 13 Noroeste 25 Noroeste 0 -- -- 91
2019-01-20 01:00:00 10.9 18 Noroeste 28 Noroeste -- -- -- 89
2019-01-20 00:00:00 10.9 9 Oeste 24 Sudoeste 0 -- -- 92
2019-01-19 23:00:00 10.9 7 Sudoeste 19 Sudoeste 0 -- -- 92
2019-01-19 22:00:00 10.8 9 Noroeste 28 Oeste 0.6 -- -- 95
2019-01-19 21:00:00 11 12 Sudoeste 36 Sur 0.6 -- -- 92
2019-01-19 20:00:00 10.7 10 Sudeste 30 Sudeste 2.2 -- -- 92
2019-01-19 19:00:00 11 8 Sudoeste 29 Oeste 0 -- -- 92
2019-01-19 18:00:00 10 7 Sudeste 25 Sudeste 0 -- -- 98
2019-01-19 17:00:00 9.1 7 Sudeste 26 Sur 0 -- -- 97
2019-01-19 16:00:00 8.8 7 Sudeste 24 Sur 0.4 -- -- 94
2019-01-19 15:00:00 8.5 12 Sur 33 Sur 0.6 -- -- 94
2019-01-19 14:00:00 8.5 18 Sur 30 Sur 0 -- -- 91
2019-01-19 13:00:00 8.1 10 Sur 19 Sur 0 -- -- 92
2019-01-19 12:00:00 7.7 7 Sur 17 Sudoeste 0 -- -- 93
2019-01-19 11:00:00 7.2 3 Sur 12 Sudoeste 0 -- -- 95
2019-01-19 10:00:00 6.6 6 Sur 12 Sudoeste 0 -- -- 98
2019-01-19 09:00:00 6 6 Sudeste 10 Sudeste 0 -- -- 99
2019-01-19 08:00:00 5.9 0 Calma 4 Sur 0 -- -- 98
2019-01-19 07:00:00 5.8 0 Calma 2 Sur 0 -- -- 98
2019-01-19 06:00:00 5.7 0 Calma 6 Sudeste 0.2 -- -- 98
2019-01-19 05:00:00 5.7 3 Sudeste 6 Sur 0 -- -- 97
2019-01-19 04:00:00 5.7 5 Sudeste 13 Sudeste 0 -- -- 97
2019-01-19 03:00:00 5.8 6 Sudeste 12 Sudeste 0 -- -- 95
2019-01-19 02:00:00 5.9 6 Sudeste 14 Sudeste 0 -- -- 91
2019-01-19 01:00:00 6.2 8 Sudeste 14 Sudeste 0.2 -- -- 88
2019-01-19 00:00:00 6 4 Sudeste 5 Este 0.2 -- -- 90